Time,TemperatureF,DewpointF,PressureIn,WindDirection,WindDirectionDegrees,WindSpeedMPH,WindSpeedGustMPH,Humidity,HourlyPrecipIn,Conditions,Clouds,dailyrainin,SoftwareType,DateUTC
2013-04-11 00:01:00,67.1,61.1,29.76,South,180,0.0,-999.0,81,-99.99,,,0.00,Acu-Link.com,2013-04-11 04:01:00,
2013-04-11 00:16:00,66.7,61.4,29.76,SSW,202,1.7,-999.0,83,-99.99,,,0.00,Acu-Link.com,2013-04-11 04:16:00,
2013-04-11 00:32:00,66.4,61.4,29.77,West,270,2.2,-999.0,84,-99.99,,,0.00,Acu-Link.com,2013-04-11 04:32:00,
2013-04-11 00:47:00,66.2,61.6,29.77,SSW,202,2.7,-999.0,85,-99.99,,,0.00,Acu-Link.com,2013-04-11 04:47:00,
2013-04-11 01:02:00,65.8,61.5,29.76,SW,225,1.7,-999.0,86,-99.99,,,0.00,Acu-Link.com,2013-04-11 05:02:00,
2013-04-11 01:17:00,65.3,61.7,29.76,SW,225,1.7,-999.0,88,-99.99,,,0.00,Acu-Link.com,2013-04-11 05:17:00,
2013-04-11 01:32:00,64.9,61.6,29.76,SW,225,0.0,-999.0,89,-99.99,,,0.00,Acu-Link.com,2013-04-11 05:32:00,
2013-04-11 01:47:00,64.6,61.6,29.75,SSW,202,1.7,-999.0,90,-99.99,,,0.00,Acu-Link.com,2013-04-11 05:47:00,
2013-04-11 02:02:00,64.2,61.8,29.76,SSW,202,1.1,-999.0,92,-99.99,,,0.00,Acu-Link.com,2013-04-11 06:02:00,
2013-04-11 02:17:00,63.9,61.8,29.75,SW,225,0.0,-999.0,93,-99.99,,,0.00,Acu-Link.com,2013-04-11 06:17:00,
2013-04-11 02:32:00,63.5,61.4,29.76,South,180,0.0,-999.0,93,-99.99,,,0.00,Acu-Link.com,2013-04-11 06:32:00,
2013-04-11 02:48:00,63.1,61.3,29.76,South,180,0.0,-999.0,94,-99.99,,,0.00,Acu-Link.com,2013-04-11 06:48:00,
2013-04-11 03:03:00,62.8,61.0,29.76,South,180,0.0,-999.0,94,-99.99,,,0.00,Acu-Link.com,2013-04-11 07:03:00,
2013-04-11 03:18:00,62.4,60.9,29.75,South,180,0.0,-999.0,95,-99.99,,,0.00,Acu-Link.com,2013-04-11 07:18:00,
2013-04-11 03:33:00,61.9,60.7,29.75,NE,45,0.0,-999.0,96,-99.99,,,0.00,Acu-Link.com,2013-04-11 07:33:00,
2013-04-11 03:48:00,61.3,60.4,29.74,NE,45,0.0,-999.0,97,-99.99,,,0.00,Acu-Link.com,2013-04-11 07:48:00,
2013-04-11 04:18:00,61.2,60.3,29.74,NE,45,0.0,-999.0,97,-99.99,,,0.00,Acu-Link.com,2013-04-11 08:18:00,
2013-04-11 04:34:00,61.2,60.3,29.74,NE,45,0.0,-999.0,97,-99.99,,,0.00,Acu-Link.com,2013-04-11 08:34:00,
2013-04-11 04:49:00,61.3,60.7,29.73,ESE,112,0.0,-999.0,98,-99.99,,,0.00,Acu-Link.com,2013-04-11 08:49:00,
2013-04-11 05:04:00,61.3,60.7,29.73,WSW,247,0.0,-999.0,98,-99.99,,,0.00,Acu-Link.com,2013-04-11 09:04:00,
2013-04-11 05:19:00,61.9,61.6,29.73,NNE,22,0.0,-999.0,99,-99.99,,,0.00,Acu-Link.com,2013-04-11 09:19:00,
2013-04-11 05:34:00,62.4,62.1,29.74,West,270,0.0,-999.0,99,-99.99,,,0.00,Acu-Link.com,2013-04-11 09:34:00,
2013-04-11 05:49:00,62.8,62.5,29.74,WSW,247,1.1,-999.0,99,-99.99,,,0.00,Acu-Link.com,2013-04-11 09:49:00,
2013-04-11 06:04:00,63.0,62.7,29.73,SW,225,1.7,-999.0,99,-99.99,,,0.00,Acu-Link.com,2013-04-11 10:04:00,
2013-04-11 06:19:00,63.1,62.8,29.74,ENE,67,0.0,-999.0,99,-99.99,,,0.00,Acu-Link.com,2013-04-11 10:19:00,
2013-04-11 06:34:00,63.5,63.2,29.74,SW,225,0.0,-999.0,99,-99.99,,,0.00,Acu-Link.com,2013-04-11 10:34:00,
2013-04-11 06:50:00,63.7,63.4,29.74,SSW,202,0.0,-999.0,99,-99.99,,,0.00,Acu-Link.com,2013-04-11 10:50:00,
2013-04-11 07:05:00,63.9,63.6,29.75,SW,225,0.0,-999.0,99,-99.99,,,0.00,Acu-Link.com,2013-04-11 11:05:00,
2013-04-11 07:20:00,63.9,63.6,29.75,SW,225,0.0,-999.0,99,-99.99,,,0.00,Acu-Link.com,2013-04-11 11:20:00,
2013-04-11 07:35:00,64.0,63.7,29.75,South,180,0.0,-999.0,99,-99.99,,,0.00,Acu-Link.com,2013-04-11 11:35:00,
2013-04-11 07:50:00,64.2,63.9,29.76,East,90,0.0,-999.0,99,-99.99,,,0.00,Acu-Link.com,2013-04-11 11:50:00,
2013-04-11 08:05:00,64.4,64.1,29.76,SW,225,0.0,-999.0,99,-99.99,,,0.00,Acu-Link.com,2013-04-11 12:05:00,
2013-04-11 08:20:00,64.8,64.5,29.76,SW,225,0.0,-999.0,99,-99.99,,,0.00,Acu-Link.com,2013-04-11 12:20:00,
2013-04-11 08:35:00,64.9,64.6,29.76,SSW,202,0.0,-999.0,99,-99.99,,,0.00,Acu-Link.com,2013-04-11 12:35:00,
2013-04-11 08:50:00,65.3,65.0,29.76,SW,225,0.0,-999.0,99,-99.99,,,0.00,Acu-Link.com,2013-04-11 12:50:00,
2013-04-11 09:06:00,65.8,65.2,29.76,WSW,247,0.0,-999.0,98,-99.99,,,0.00,Acu-Link.com,2013-04-11 13:06:00,
2013-04-11 09:21:00,66.4,65.5,29.77,SSW,202,0.0,-999.0,97,-99.99,,,0.00,Acu-Link.com,2013-04-11 13:21:00,
2013-04-11 09:51:00,67.3,65.8,29.76,South,180,0.0,-999.0,95,-99.99,,,0.00,Acu-Link.com,2013-04-11 13:51:00,
2013-04-11 10:06:00,67.8,66.0,29.76,South,180,0.0,-999.0,94,-99.99,,,0.00,Acu-Link.com,2013-04-11 14:06:00,
2013-04-11 10:21:00,68.7,66.6,29.76,NE,45,0.0,-999.0,93,-99.99,,,0.00,Acu-Link.com,2013-04-11 14:21:00,
2013-04-11 10:36:00,69.1,66.7,29.76,South,180,0.0,-999.0,92,-99.99,,,0.00,Acu-Link.com,2013-04-11 14:36:00,
2013-04-11 10:51:00,69.8,67.0,29.76,SSW,202,0.0,-999.0,91,-99.99,,,0.00,Acu-Link.com,2013-04-11 14:51:00,
2013-04-11 11:06:00,70.9,67.5,29.76,SSE,157,0.0,-999.0,89,-99.99,,,0.00,Acu-Link.com,2013-04-11 15:06:00,
2013-04-11 11:37:00,73.9,68.4,29.75,SW,225,2.7,-999.0,83,-99.99,,,0.00,Acu-Link.com,2013-04-11 15:37:00,
2013-04-11 12:07:00,75.4,68.0,29.74,SSW,202,2.7,-999.0,78,-99.99,,,0.00,Acu-Link.com,2013-04-11 16:07:00,
2013-04-11 12:22:00,75.9,67.8,29.74,SW,225,1.7,-999.0,76,-99.99,,,0.00,Acu-Link.com,2013-04-11 16:22:00,
2013-04-11 12:37:00,75.6,67.9,29.73,WSW,247,2.7,-999.0,77,-99.99,,,0.00,Acu-Link.com,2013-04-11 16:37:00,
2013-04-11 12:52:00,77.5,68.5,29.72,SSW,202,1.1,-999.0,74,-99.99,,,0.00,Acu-Link.com,2013-04-11 16:52:00,
2013-04-11 13:07:00,76.6,68.1,29.71,WSW,247,2.7,-999.0,75,-99.99,,,0.00,Acu-Link.com,2013-04-11 17:07:00,
2013-04-11 13:22:00,78.3,68.5,29.70,SW,225,2.7,-999.0,72,-99.99,,,0.00,Acu-Link.com,2013-04-11 17:22:00,
2013-04-11 13:37:00,78.6,68.4,29.70,SSE,157,2.7,-999.0,71,-99.99,,,0.00,Acu-Link.com,2013-04-11 17:37:00,
2013-04-11 14:08:00,79.3,68.2,29.69,South,180,1.7,-999.0,69,-99.99,,,0.00,Acu-Link.com,2013-04-11 18:08:00,
2013-04-11 14:23:00,80.6,68.6,29.69,WSW,247,3.7,-999.0,67,-99.99,,,0.00,Acu-Link.com,2013-04-11 18:23:00,
2013-04-11 14:38:00,78.6,67.6,29.67,SW,225,2.7,-999.0,69,-99.99,,,0.00,Acu-Link.com,2013-04-11 18:38:00,
2013-04-11 14:53:00,80.1,68.1,29.67,WSW,247,2.7,-999.0,67,-99.99,,,0.00,Acu-Link.com,2013-04-11 18:53:00,
2013-04-11 15:08:00,81.1,68.2,29.66,SW,225,2.2,-999.0,65,-99.99,,,0.00,Acu-Link.com,2013-04-11 19:08:00,
2013-04-11 15:23:00,82.8,68.4,29.65,East,90,2.2,-999.0,62,-99.99,,,0.00,Acu-Link.com,2013-04-11 19:23:00,
2013-04-11 15:38:00,83.5,68.6,29.62,SW,225,2.2,-999.0,61,-99.99,,,0.00,Acu-Link.com,2013-04-11 19:38:00,
2013-04-11 15:53:00,81.7,67.9,29.61,West,270,1.7,-999.0,63,-99.99,,,0.00,Acu-Link.com,2013-04-11 19:53:00,
2013-04-11 16:09:00,84.6,67.7,29.60,SW,225,2.2,-999.0,57,-99.99,,,0.00,Acu-Link.com,2013-04-11 20:09:00,
2013-04-11 16:24:00,84.2,68.3,29.59,ESE,112,1.7,-999.0,59,-99.99,,,0.00,Acu-Link.com,2013-04-11 20:24:00,
2013-04-11 16:39:00,82.0,67.2,29.58,WSW,247,2.2,-999.0,61,-99.99,,,0.00,Acu-Link.com,2013-04-11 20:39:00,
2013-04-11 16:54:00,82.4,67.6,29.59,WSW,247,0.0,-999.0,61,-99.99,,,0.00,Acu-Link.com,2013-04-11 20:54:00,
2013-04-11 17:09:00,83.8,68.4,29.58,WSW,247,3.7,-999.0,60,-99.99,,,0.00,Acu-Link.com,2013-04-11 21:09:00,
2013-04-11 17:24:00,83.7,68.3,29.56,West,270,0.0,-999.0,60,-99.99,,,0.00,Acu-Link.com,2013-04-11 21:24:00,
2013-04-11 17:39:00,82.2,68.3,29.57,East,90,0.0,-999.0,63,-99.99,,,0.00,Acu-Link.com,2013-04-11 21:39:00,
2013-04-11 17:54:00,82.0,68.1,29.56,West,270,0.0,-999.0,63,-99.99,,,0.00,Acu-Link.com,2013-04-11 21:54:00,
2013-04-11 18:09:00,81.5,68.6,29.56,SSW,202,0.0,-999.0,65,-99.99,,,0.00,Acu-Link.com,2013-04-11 22:09:00,
2013-04-11 18:25:00,80.4,67.5,29.55,South,180,1.1,-999.0,65,-99.99,,,0.00,Acu-Link.com,2013-04-11 22:25:00,
2013-04-11 18:40:00,79.7,67.8,29.55,West,270,2.2,-999.0,67,-99.99,,,0.00,Acu-Link.com,2013-04-11 22:40:00,
2013-04-11 18:55:00,78.8,68.2,29.55,ENE,67,2.2,-999.0,70,-99.99,,,0.00,Acu-Link.com,2013-04-11 22:55:00,
2013-04-11 19:10:00,76.3,67.4,29.56,West,270,4.2,-999.0,74,-99.99,,,0.00,Acu-Link.com,2013-04-11 23:10:00,
2013-04-11 19:25:00,74.7,67.0,29.54,ENE,67,1.7,-999.0,77,-99.99,,,0.00,Acu-Link.com,2013-04-11 23:25:00,
2013-04-11 19:40:00,72.0,68.2,29.56,SSW,202,0.0,-999.0,88,-99.99,,,0.01,Acu-Link.com,2013-04-11 23:40:00,
2013-04-11 19:55:00,70.7,68.3,29.55,SW,225,0.0,-999.0,92,-99.99,,,0.06,Acu-Link.com,2013-04-11 23:55:00,
2013-04-11 20:10:00,70.2,68.4,29.55,East,90,1.1,-999.0,94,-99.99,,,0.06,Acu-Link.com,2013-04-12 00:10:00,
2013-04-11 20:25:00,70.0,68.5,29.55,SW,225,2.2,-999.0,95,-99.99,,,0.06,Acu-Link.com,2013-04-12 00:25:00,
2013-04-11 20:41:00,69.8,68.6,29.55,SSW,202,1.7,-999.0,96,-99.99,,,0.06,Acu-Link.com,2013-04-12 00:41:00,
2013-04-11 20:56:00,69.6,68.4,29.55,SW,225,2.7,-999.0,96,-99.99,,,0.06,Acu-Link.com,2013-04-12 00:56:00,
2013-04-11 21:56:00,68.9,68.0,29.55,ESE,112,1.7,-999.0,97,-99.99,,,0.06,Acu-Link.com,2013-04-12 01:56:00,
2013-04-11 22:11:00,68.9,68.0,29.55,SSE,157,0.0,-999.0,97,-99.99,,,0.06,Acu-Link.com,2013-04-12 02:11:00,
2013-04-11 22:26:00,68.9,68.0,29.56,SW,225,0.0,-999.0,97,-99.99,,,0.06,Acu-Link.com,2013-04-12 02:26:00,
2013-04-11 22:57:00,68.9,68.0,29.55,South,180,0.0,-999.0,97,-99.99,,,0.06,Acu-Link.com,2013-04-12 02:57:00,
2013-04-11 23:12:00,68.9,67.7,29.55,East,90,2.7,-999.0,96,-99.99,,,0.06,Acu-Link.com,2013-04-12 03:12:00,
2013-04-11 23:27:00,68.7,67.5,29.56,East,90,1.7,-999.0,96,-99.99,,,0.06,Acu-Link.com,2013-04-12 03:27:00,
2013-04-11 23:42:00,68.7,67.5,29.55,SSW,202,1.1,-999.0,96,-99.99,,,0.06,Acu-Link.com,2013-04-12 03:42:00,
2013-04-11 23:57:00,68.7,67.5,29.56,ENE,67,0.0,-999.0,96,-99.99,,,0.06,Acu-Link.com,2013-04-12 03:57:00,